createdAt,value
2022-08-02T00:00:15.993Z,0.57
2022-08-02T00:02:44.424Z,0.50
2022-08-02T00:05:12.676Z,0.50
2022-08-02T00:07:41.461Z,0.50
2022-08-02T00:10:11.040Z,0.70
2022-08-02T00:12:38.851Z,0.43
2022-08-02T00:15:08.021Z,0.50
2022-08-02T00:17:37.148Z,0.52
2022-08-02T00:20:06.415Z,0.50
2022-08-02T00:22:34.140Z,0.70
2022-08-02T00:25:01.799Z,0.70
2022-08-02T00:27:29.465Z,0.90
2022-08-02T00:29:57.195Z,0.60
2022-08-02T00:32:24.856Z,0.50
2022-08-02T00:34:53.800Z,0.50
2022-08-02T00:37:21.447Z,0.38
2022-08-02T00:39:49.129Z,0.60
2022-08-02T00:42:16.952Z,0.68
2022-08-02T00:44:44.604Z,0.50
2022-08-02T00:47:14.976Z,0.50
2022-08-02T00:49:47.634Z,0.40
2022-08-02T00:52:16.584Z,0.50
2022-08-02T00:54:44.351Z,0.60
2022-08-02T00:57:12.309Z,0.65
2022-08-02T00:59:41.819Z,0.57
2022-08-02T01:02:10.086Z,0.52
2022-08-02T01:04:38.048Z,0.60
2022-08-02T01:07:12.176Z,0.68
2022-08-02T01:09:42.963Z,0.65
2022-08-02T01:12:11.667Z,0.63
2022-08-02T01:14:41.501Z,0.70
2022-08-02T01:17:13.266Z,3.75
2022-08-02T01:19:50.362Z,3.70
2022-08-02T01:23:00.721Z,0.73
2022-08-02T01:25:54.671Z,0.95
2022-08-02T01:28:37.153Z,0.70
2022-08-02T01:31:13.754Z,0.93
2022-08-02T01:33:46.994Z,1.00
2022-08-02T01:36:19.739Z,0.80
2022-08-02T01:38:49.995Z,1.00
2022-08-02T01:41:20.707Z,0.60
2022-08-02T01:43:54.599Z,0.80
2022-08-02T01:46:23.252Z,0.80
2022-08-02T01:48:54.187Z,0.90
2022-08-02T01:51:43.873Z,0.70
2022-08-02T01:54:16.478Z,0.73
2022-08-02T01:56:45.572Z,0.77
2022-08-02T01:59:19.526Z,0.90
2022-08-02T02:01:50.385Z,0.80
2022-08-02T02:04:19.212Z,0.65
2022-08-02T02:06:48.528Z,0.70
2022-08-02T02:09:17.436Z,0.60
2022-08-02T02:12:14.715Z,0.70
2022-08-02T02:14:37.778Z,0.60
2022-08-02T02:17:07.480Z,1.17
2022-08-02T02:19:37.892Z,0.70
2022-08-02T02:22:06.146Z,0.70
2022-08-02T02:24:35.337Z,0.80
2022-08-02T02:27:05.683Z,0.80
2022-08-02T02:29:35.233Z,0.80
2022-08-02T02:32:07.076Z,1.10
2022-08-02T02:34:38.673Z,1.92
2022-08-02T02:37:12.657Z,0.77
2022-08-02T02:39:42.815Z,2.22
2022-08-02T02:42:14.789Z,1.20
2022-08-02T02:44:43.643Z,0.95
2022-08-02T02:47:14.093Z,0.82
2022-08-02T02:49:43.981Z,0.90
2022-08-02T02:52:14.436Z,0.88
2022-08-02T02:54:43.735Z,1.13
2022-08-02T02:57:12.650Z,1.80
2022-08-02T02:59:49.418Z,1.20
2022-08-02T03:02:20.252Z,0.70
2022-08-02T03:04:56.931Z,0.90
2022-08-02T03:07:26.147Z,0.80
2022-08-02T03:09:54.912Z,0.80
2022-08-02T03:12:28.783Z,0.70
2022-08-02T03:14:59.313Z,0.55
2022-08-02T03:17:38.524Z,0.93
2022-08-02T03:20:10.375Z,0.75
2022-08-02T03:22:38.049Z,0.68
2022-08-02T03:25:06.695Z,0.77
2022-08-02T03:27:34.426Z,1.10
2022-08-02T03:30:02.081Z,0.85
2022-08-02T03:32:31.266Z,0.90
2022-08-02T03:34:58.881Z,1.10
2022-08-02T03:37:28.126Z,0.90
2022-08-02T03:39:55.954Z,0.75
2022-08-02T03:42:24.057Z,0.80
2022-08-02T03:44:52.688Z,0.80
2022-08-02T03:47:21.009Z,0.80
2022-08-02T03:49:51.337Z,0.80
2022-08-02T03:52:19.222Z,1.58
2022-08-02T03:54:46.868Z,1.50
2022-08-02T03:57:14.788Z,1.95
2022-08-02T03:59:43.180Z,1.50
2022-08-02T04:02:11.583Z,1.95
2022-08-02T04:04:39.612Z,0.88
2022-08-02T04:07:08.617Z,0.68
2022-08-02T04:09:36.310Z,0.90
2022-08-02T04:12:04.197Z,0.90
2022-08-02T04:14:36.479Z,1.13
2022-08-02T04:17:08.494Z,0.90
2022-08-02T04:19:39.900Z,0.80
2022-08-02T04:22:14.941Z,0.85
2022-08-02T04:24:47.180Z,0.75
2022-08-02T04:27:51.077Z,0.80
2022-08-02T04:30:10.152Z,0.90
2022-08-02T04:32:39.275Z,1.10
2022-08-02T04:35:23.503Z,1.38
2022-08-02T04:38:08.271Z,0.90
2022-08-02T04:40:38.700Z,0.93
2022-08-02T04:43:06.465Z,1.13
2022-08-02T04:45:34.472Z,1.00
2022-08-02T04:48:06.122Z,1.30
2022-08-02T04:50:34.485Z,0.98
2022-08-02T04:53:03.496Z,1.25
2022-08-02T04:55:31.124Z,1.38
2022-08-02T04:57:59.485Z,0.95
2022-08-02T05:00:28.513Z,0.82
2022-08-02T05:02:57.092Z,0.95
2022-08-02T05:05:24.770Z,0.70
2022-08-02T05:07:52.935Z,0.90
2022-08-02T05:10:22.656Z,0.95
2022-08-02T05:12:50.464Z,0.70
2022-08-02T05:15:18.547Z,0.80
2022-08-02T05:17:48.132Z,1.20
2022-08-02T05:20:16.865Z,1.20
2022-08-02T05:22:44.798Z,0.90
2022-08-02T05:25:13.199Z,0.98
2022-08-02T05:27:43.576Z,0.80
2022-08-02T05:30:11.936Z,1.00
2022-08-02T05:32:46.856Z,0.80
2022-08-02T05:35:14.772Z,0.88
2022-08-02T05:37:43.097Z,0.90
2022-08-02T05:40:13.150Z,0.95
2022-08-02T05:42:43.037Z,0.88
2022-08-02T05:45:11.452Z,1.08
2022-08-02T05:47:39.571Z,1.15
2022-08-02T05:50:09.536Z,1.10
2022-08-02T05:52:45.375Z,1.00
2022-08-02T05:55:18.835Z,0.93
2022-08-02T05:57:53.808Z,1.25
2022-08-02T06:00:22.422Z,1.00
2022-08-02T06:03:05.446Z,1.10
2022-08-02T06:05:36.130Z,1.05
2022-08-02T06:08:08.312Z,1.85
2022-08-02T06:10:38.503Z,2.20
2022-08-02T06:13:14.401Z,1.52
2022-08-02T06:15:53.623Z,1.27
2022-08-02T06:18:28.050Z,1.80
2022-08-02T06:20:58.273Z,1.92
2022-08-02T06:23:27.462Z,1.98
2022-08-02T06:25:55.039Z,2.15
2022-08-02T06:28:24.786Z,1.70
2022-08-02T06:30:52.465Z,2.05
2022-08-02T06:33:20.276Z,1.77
2022-08-02T06:35:52.901Z,1.60
2022-08-02T06:38:25.091Z,1.33
2022-08-02T06:40:57.808Z,1.48
2022-08-02T06:43:35.837Z,1.40
2022-08-02T06:46:38.055Z,1.20
2022-08-02T06:48:55.022Z,1.60
2022-08-02T06:51:23.018Z,1.70
2022-08-02T06:53:50.651Z,1.90
2022-08-02T06:56:19.227Z,1.77
2022-08-02T06:58:48.180Z,1.83
2022-08-02T07:01:15.968Z,1.75
2022-08-02T07:03:43.780Z,1.70
2022-08-02T07:06:11.541Z,1.73
2022-08-02T07:08:39.957Z,1.73
2022-08-02T07:11:08.640Z,1.95
2022-08-02T07:13:39.850Z,1.80
2022-08-02T07:16:09.073Z,2.20
2022-08-02T07:18:36.756Z,1.90
2022-08-02T07:21:06.081Z,2.30
2022-08-02T07:23:36.522Z,2.17
2022-08-02T07:26:05.821Z,2.80
2022-08-02T07:28:33.694Z,2.00
2022-08-02T07:31:01.345Z,1.88
2022-08-02T07:33:38.041Z,2.42
2022-08-02T07:36:09.641Z,2.25
2022-08-02T07:38:39.876Z,2.33
2022-08-02T07:41:08.709Z,1.98
2022-08-02T07:43:36.357Z,2.28
2022-08-02T07:46:04.014Z,2.13
2022-08-02T07:48:33.477Z,2.42
2022-08-02T07:51:01.186Z,1.98
2022-08-02T07:53:50.015Z,2.20
2022-08-02T07:56:16.711Z,2.15
2022-08-02T07:58:44.381Z,1.67
2022-08-02T08:01:12.127Z,2.10
2022-08-02T08:03:41.094Z,1.83
2022-08-02T08:06:08.959Z,2.15
2022-08-02T08:08:36.794Z,2.10
2022-08-02T08:11:04.521Z,2.15
2022-08-02T08:13:34.893Z,2.28
2022-08-02T08:16:02.990Z,1.88
2022-08-02T08:18:30.777Z,2.00
2022-08-02T08:21:00.547Z,1.92
2022-08-02T08:23:28.517Z,2.30
2022-08-02T08:25:56.328Z,1.90
2022-08-02T08:28:23.988Z,1.77
2022-08-02T08:30:51.616Z,1.90
2022-08-02T08:33:19.257Z,1.50
2022-08-02T08:35:47.029Z,2.00
2022-08-02T08:38:16.231Z,2.30
2022-08-02T08:40:44.729Z,8.27
2022-08-02T08:43:14.004Z,2.65
2022-08-02T08:45:42.099Z,1.63
2022-08-02T08:48:15.525Z,1.45
2022-08-02T08:51:01.766Z,2.53
2022-08-02T08:53:36.364Z,3.20
2022-08-02T08:56:05.397Z,3.30
2022-08-02T08:58:33.028Z,2.30
2022-08-02T09:01:01.081Z,2.15
2022-08-02T09:03:28.733Z,1.70
2022-08-02T09:06:02.490Z,1.75
2022-08-02T09:08:34.092Z,2.45
2022-08-02T09:11:01.733Z,1.35
2022-08-02T09:13:37.956Z,1.50
2022-08-02T09:16:14.834Z,1.65
2022-08-02T09:18:45.377Z,2.13
2022-08-02T09:21:14.743Z,1.58
2022-08-02T09:23:45.413Z,2.38
2022-08-02T09:26:14.780Z,1.60
2022-08-02T09:28:44.861Z,1.45
2022-08-02T09:31:14.578Z,1.40
2022-08-02T09:33:44.805Z,1.42
2022-08-02T09:36:13.905Z,1.50
2022-08-02T09:38:54.283Z,1.45
2022-08-02T09:41:23.626Z,1.63
2022-08-02T09:44:04.677Z,1.50
2022-08-02T09:46:38.227Z,1.67
2022-08-02T09:49:09.258Z,1.97
2022-08-02T09:51:39.208Z,1.40
2022-08-02T09:54:11.683Z,1.42
2022-08-02T09:56:45.232Z,1.67
2022-08-02T09:59:14.416Z,1.60
2022-08-02T10:01:49.052Z,1.80
2022-08-02T10:04:22.592Z,1.80
2022-08-02T10:06:53.056Z,1.58
2022-08-02T10:09:23.326Z,1.42
2022-08-02T10:11:52.981Z,1.60
2022-08-02T10:14:21.588Z,1.42
2022-08-02T10:16:49.261Z,1.65
2022-08-02T10:19:17.337Z,1.70
2022-08-02T10:21:47.093Z,1.60
2022-08-02T10:24:16.599Z,1.73
2022-08-02T10:26:47.561Z,1.63
2022-08-02T10:29:18.132Z,1.80
2022-08-02T10:31:51.053Z,1.55
2022-08-02T10:34:22.768Z,1.70
2022-08-02T10:36:52.173Z,1.55
2022-08-02T10:39:19.882Z,1.58
2022-08-02T10:41:51.531Z,1.40
2022-08-02T10:44:27.358Z,1.65
2022-08-02T10:47:24.737Z,1.83
2022-08-02T10:49:54.389Z,1.70
2022-08-02T10:52:22.776Z,1.73
2022-08-02T10:54:56.831Z,1.83
2022-08-02T10:57:27.714Z,1.60
2022-08-02T10:59:57.446Z,1.50
2022-08-02T11:02:41.381Z,1.67
2022-08-02T11:05:17.131Z,1.90
2022-08-02T11:07:47.899Z,1.65
2022-08-02T11:10:35.895Z,1.50
2022-08-02T11:13:09.356Z,3.65
2022-08-02T11:16:05.370Z,1.40
2022-08-02T11:19:11.975Z,2.70
2022-08-02T11:21:41.007Z,1.50
2022-08-02T11:24:29.418Z,1.30
2022-08-02T11:26:58.407Z,1.50
2022-08-02T11:29:38.529Z,1.45
2022-08-02T11:32:07.524Z,1.70
2022-08-02T11:34:36.863Z,1.50
2022-08-02T11:37:07.568Z,1.30
2022-08-02T11:39:35.366Z,1.38
2022-08-02T11:42:03.138Z,1.40
2022-08-02T11:44:40.798Z,1.20
2022-08-02T11:47:08.987Z,1.35
2022-08-02T11:49:37.914Z,1.50
2022-08-02T11:52:11.154Z,1.67
2022-08-02T11:54:40.612Z,1.25
2022-08-02T11:57:17.059Z,1.00
2022-08-02T11:59:48.758Z,1.23
2022-08-02T12:02:18.753Z,1.25
2022-08-02T12:04:53.456Z,1.25
2022-08-02T12:07:34.275Z,1.40
2022-08-02T12:10:03.775Z,1.30
2022-08-02T12:12:31.453Z,1.30
2022-08-02T12:14:59.169Z,1.33
2022-08-02T12:17:47.897Z,1.10
2022-08-02T12:20:17.123Z,1.30
2022-08-02T12:22:46.236Z,1.48
2022-08-02T12:25:34.708Z,1.30
2022-08-02T12:28:18.136Z,1.40
2022-08-02T12:30:54.277Z,1.30
2022-08-02T12:33:23.554Z,1.25
2022-08-02T12:35:51.390Z,1.50
2022-08-02T12:38:20.660Z,1.10
2022-08-02T12:40:49.028Z,1.20
2022-08-02T12:43:22.221Z,1.30
2022-08-02T12:45:52.977Z,1.30
2022-08-02T12:48:37.534Z,1.20
2022-08-02T12:51:23.356Z,1.30
2022-08-02T12:53:59.671Z,1.20
2022-08-02T12:56:30.189Z,1.17
2022-08-02T12:58:58.489Z,1.20
2022-08-02T13:01:28.435Z,0.98
2022-08-02T13:04:10.419Z,1.02
2022-08-02T13:06:43.838Z,1.13
2022-08-02T13:09:15.858Z,1.00
2022-08-02T13:11:44.377Z,1.00
2022-08-02T13:14:12.824Z,1.08
2022-08-02T13:16:42.267Z,0.90
2022-08-02T13:19:10.289Z,1.10
2022-08-02T13:21:39.848Z,1.10
2022-08-02T13:24:23.261Z,1.00
2022-08-02T13:26:57.299Z,1.00
2022-08-02T13:29:25.736Z,0.90
2022-08-02T13:31:53.591Z,0.80
2022-08-02T13:34:21.237Z,0.73
2022-08-02T13:36:48.941Z,1.10
2022-08-02T13:39:16.597Z,1.05
2022-08-02T13:41:44.239Z,0.98
2022-08-02T13:44:13.237Z,1.25
2022-08-02T13:46:45.455Z,1.17
2022-08-02T13:49:18.385Z,1.30
2022-08-02T13:51:47.147Z,1.20
2022-08-02T13:54:15.373Z,0.80
2022-08-02T13:56:43.097Z,1.10
2022-08-02T13:59:26.283Z,1.17
2022-08-02T14:02:00.589Z,0.80
2022-08-02T14:04:29.677Z,0.90
2022-08-02T14:06:58.926Z,0.90
2022-08-02T14:09:27.536Z,0.90
2022-08-02T14:11:55.225Z,1.00
2022-08-02T14:14:22.837Z,1.10
2022-08-02T14:16:50.482Z,0.85
2022-08-02T14:19:21.679Z,0.98
2022-08-02T14:21:49.805Z,1.00
2022-08-02T14:24:18.395Z,0.80
2022-08-02T14:26:46.448Z,1.00
2022-08-02T14:29:14.180Z,0.80
2022-08-02T14:31:44.721Z,1.30
2022-08-02T14:34:13.336Z,0.90
2022-08-02T14:36:42.390Z,1.02
2022-08-02T14:39:10.439Z,1.05
2022-08-02T14:41:59.838Z,1.20
2022-08-02T14:44:26.057Z,1.17
2022-08-02T14:46:53.697Z,1.08
2022-08-02T14:49:25.107Z,0.95
2022-08-02T14:51:56.155Z,1.00
2022-08-02T14:54:27.677Z,1.00
2022-08-02T14:56:58.450Z,0.98
2022-08-02T14:59:26.381Z,1.27
2022-08-02T15:01:54.376Z,1.13
2022-08-02T15:04:22.121Z,1.50
2022-08-02T15:06:49.825Z,1.00
2022-08-02T15:09:18.845Z,1.38
2022-08-02T15:11:47.876Z,1.20
2022-08-02T15:14:20.275Z,1.20
2022-08-02T15:16:58.061Z,1.10
2022-08-02T15:19:44.994Z,1.10
2022-08-02T15:22:16.657Z,1.10
2022-08-02T15:24:49.162Z,1.10
2022-08-02T15:27:17.388Z,0.75
2022-08-02T15:29:46.514Z,1.10
2022-08-02T15:32:14.994Z,1.02
2022-08-02T15:34:42.793Z,1.08
2022-08-02T15:37:10.457Z,1.13
2022-08-02T15:39:38.156Z,0.73
2022-08-02T15:42:07.338Z,1.13
2022-08-02T15:44:34.981Z,0.90
2022-08-02T15:47:02.683Z,1.02
2022-08-02T15:49:30.375Z,1.20
2022-08-02T15:51:58.383Z,1.20
2022-08-02T15:54:26.062Z,0.90
2022-08-02T15:56:53.841Z,1.30
2022-08-02T15:59:22.847Z,0.90
2022-08-02T16:01:50.560Z,0.90
2022-08-02T16:04:18.758Z,1.20
2022-08-02T16:06:46.470Z,0.85
2022-08-02T16:09:14.102Z,1.00
2022-08-02T16:11:41.805Z,1.17
2022-08-02T16:14:09.504Z,1.20
2022-08-02T16:16:40.133Z,1.23
2022-08-02T16:19:46.350Z,1.15
2022-08-02T16:21:56.150Z,1.58
2022-08-02T16:24:23.868Z,3.05
2022-08-02T16:26:51.484Z,1.40
2022-08-02T16:29:19.730Z,1.27
2022-08-02T16:31:49.179Z,1.00
2022-08-02T16:34:17.301Z,1.25
2022-08-02T16:36:45.567Z,1.02
2022-08-02T16:39:13.503Z,2.70
2022-08-02T16:41:50.861Z,1.75
2022-08-02T16:44:26.859Z,0.90
2022-08-02T16:47:00.647Z,0.82
2022-08-02T16:50:04.955Z,0.95
2022-08-02T16:52:19.176Z,0.70
2022-08-02T16:54:49.415Z,1.00
2022-08-02T16:57:19.794Z,1.03
2022-08-02T16:59:57.657Z,0.98
2022-08-02T17:02:27.924Z,0.90
2022-08-02T17:04:56.613Z,0.80
2022-08-02T17:08:06.312Z,0.95
2022-08-02T17:10:12.615Z,1.08
2022-08-02T17:12:41.017Z,0.80
2022-08-02T17:16:01.025Z,0.93
2022-08-02T17:18:00.511Z,0.75
2022-08-02T17:20:28.831Z,0.80
2022-08-02T17:23:00.641Z,0.80
2022-08-02T17:27:59.724Z,0.90
2022-08-02T17:30:28.909Z,0.90
2022-08-02T17:32:57.968Z,0.93
2022-08-02T17:35:43.370Z,0.90
2022-08-02T17:38:18.176Z,0.80
2022-08-02T17:40:54.595Z,0.90
2022-08-02T17:43:22.222Z,0.95
2022-08-02T17:46:00.124Z,0.90
2022-08-02T17:48:55.026Z,0.80
2022-08-02T17:52:15.314Z,1.02
2022-08-02T17:54:12.831Z,0.88
2022-08-02T17:56:42.342Z,0.80
2022-08-02T17:59:12.228Z,1.55
2022-08-02T18:01:53.078Z,1.27
2022-08-02T18:04:27.757Z,0.90
2022-08-02T18:06:59.068Z,1.30
2022-08-02T18:09:32.485Z,1.40
2022-08-02T18:12:02.297Z,1.20
2022-08-02T18:14:30.996Z,0.95
2022-08-02T18:16:58.677Z,0.93
2022-08-02T18:19:33.161Z,1.00
2022-08-02T18:22:15.997Z,1.27
2022-08-02T18:24:44.932Z,1.10
2022-08-02T18:27:12.923Z,1.00
2022-08-02T18:29:40.631Z,1.15
2022-08-02T18:32:11.692Z,1.00
2022-08-02T18:34:39.887Z,1.50
2022-08-02T18:37:08.018Z,1.70
2022-08-02T18:39:51.113Z,1.30
2022-08-02T18:42:19.312Z,1.20
2022-08-02T18:44:46.953Z,1.40
2022-08-02T18:47:14.600Z,1.23
2022-08-02T18:49:45.970Z,1.60
2022-08-02T18:52:15.119Z,1.70
2022-08-02T18:54:44.479Z,2.10
2022-08-02T18:58:19.300Z,1.30
2022-08-02T19:00:00.669Z,1.27
2022-08-02T19:02:28.858Z,1.13
2022-08-02T19:04:57.047Z,1.10
2022-08-02T19:07:25.205Z,1.40
2022-08-02T19:10:14.130Z,2.00
2022-08-02T19:12:41.767Z,3.78
2022-08-02T19:15:16.917Z,1.90
2022-08-02T19:17:53.903Z,1.30
2022-08-02T19:20:23.951Z,1.25
2022-08-02T19:22:53.785Z,1.40
2022-08-02T19:25:27.818Z,1.30
2022-08-02T19:27:56.777Z,1.20
2022-08-02T19:30:25.644Z,1.20
2022-08-02T19:32:59.291Z,1.20
2022-08-02T19:35:34.475Z,1.50
2022-08-02T19:38:09.621Z,1.48
2022-08-02T19:40:41.584Z,1.20
2022-08-02T19:44:26.856Z,1.20
2022-08-02T19:45:57.770Z,1.50
2022-08-02T19:48:27.296Z,1.20
2022-08-02T19:51:00.866Z,1.30
2022-08-02T19:53:47.859Z,1.58
2022-08-02T19:56:24.863Z,1.17
2022-08-02T19:59:13.198Z,1.40
2022-08-02T20:01:48.832Z,1.50
2022-08-02T20:04:23.253Z,1.17
2022-08-02T20:07:04.693Z,1.27
2022-08-02T20:09:33.369Z,1.13
2022-08-02T20:12:16.710Z,1.30
2022-08-02T20:14:51.094Z,1.30
2022-08-02T20:17:20.850Z,1.10
2022-08-02T20:19:48.805Z,1.88
2022-08-02T20:22:16.936Z,1.35
2022-08-02T20:24:46.837Z,1.52
2022-08-02T20:27:23.823Z,1.50
2022-08-02T20:29:52.717Z,1.13
2022-08-02T20:32:23.456Z,1.17
2022-08-02T20:34:52.462Z,1.25
2022-08-02T20:37:59.800Z,1.30
2022-08-02T20:40:10.246Z,1.20
2022-08-02T20:42:47.542Z,1.42
2022-08-02T20:45:15.930Z,1.70
2022-08-02T20:47:43.592Z,1.30
2022-08-02T20:50:35.165Z,1.23
2022-08-02T20:53:04.014Z,1.10
2022-08-02T20:55:32.490Z,0.90
2022-08-02T20:58:02.747Z,1.30
2022-08-02T21:00:31.417Z,1.10
2022-08-02T21:02:59.340Z,1.38
2022-08-02T21:05:54.568Z,1.30
2022-08-02T21:08:15.566Z,1.17
2022-08-02T21:10:52.230Z,1.10
2022-08-02T21:13:24.113Z,1.20
2022-08-02T21:15:53.172Z,1.40
2022-08-02T21:18:34.858Z,1.20
2022-08-02T21:21:09.219Z,1.30
2022-08-02T21:23:37.545Z,1.30
2022-08-02T21:26:06.401Z,1.42
2022-08-02T21:28:44.859Z,1.33
2022-08-02T21:31:14.521Z,1.70
2022-08-02T21:33:57.544Z,1.58
2022-08-02T21:36:30.783Z,1.27
2022-08-02T21:39:05.432Z,1.27
2022-08-02T21:41:38.463Z,1.25
2022-08-02T21:44:10.367Z,1.30
2022-08-02T21:46:38.077Z,1.45
2022-08-02T21:49:06.372Z,1.50
2022-08-02T21:51:34.522Z,1.48
2022-08-02T21:54:16.858Z,1.45
2022-08-02T21:56:48.445Z,1.88
2022-08-02T21:59:18.035Z,1.42
2022-08-02T22:01:53.795Z,1.63
2022-08-02T22:04:22.192Z,1.35
2022-08-02T22:06:49.898Z,1.70
2022-08-02T22:09:43.983Z,1.70
2022-08-02T22:12:12.556Z,1.58
2022-08-02T22:14:49.338Z,1.35
2022-08-02T22:17:21.324Z,1.50
2022-08-02T22:20:12.254Z,1.35
2022-08-02T22:22:40.365Z,2.42
2022-08-02T22:25:10.110Z,1.67
2022-08-02T22:28:34.920Z,1.80
2022-08-02T22:30:38.689Z,1.70
2022-08-02T22:33:33.218Z,1.77
2022-08-02T22:36:02.162Z,2.30
2022-08-02T22:38:30.138Z,1.73
2022-08-02T22:40:57.769Z,1.90
2022-08-02T22:43:25.377Z,1.75
2022-08-02T22:46:00.352Z,1.67
2022-08-02T22:48:28.011Z,1.70
2022-08-02T22:50:56.437Z,1.60
2022-08-02T22:53:35.407Z,1.65
2022-08-02T22:56:03.554Z,1.52
2022-08-02T22:58:32.368Z,1.88
2022-08-02T23:01:01.775Z,1.40
2022-08-02T23:03:29.599Z,1.40
2022-08-02T23:05:57.784Z,1.70
2022-08-02T23:08:25.496Z,1.80
2022-08-02T23:10:53.284Z,2.08
2022-08-02T23:13:23.290Z,1.60
2022-08-02T23:18:58.106Z,1.77
2022-08-02T23:21:27.599Z,1.95
2022-08-02T23:24:14.040Z,2.00
2022-08-02T23:26:41.672Z,1.70
2022-08-02T23:29:09.341Z,2.17
2022-08-02T23:31:38.444Z,2.20
2022-08-02T23:34:07.504Z,1.88
2022-08-02T23:36:35.149Z,1.63
2022-08-02T23:39:02.786Z,2.15
2022-08-02T23:41:30.430Z,1.90
2022-08-02T23:44:13.114Z,1.80
2022-08-02T23:46:42.909Z,2.22
2022-08-02T23:49:13.513Z,1.95
2022-08-02T23:51:41.246Z,1.65
2022-08-02T23:54:09.220Z,1.88
2022-08-02T23:56:36.926Z,1.95
2022-08-02T23:59:05.185Z,1.77
